METAR Data
IDs: Format: Raw Decoded Include TAF

Data at: 1339 UTC 14 Dec 2019

KADF 141331Z AUTO 18004KT 1/4SM FG OVC003 01/01 A2986 RMK AO2 FZRANO
KADF 141327Z AUTO 17003KT 3/4SM BR OVC003 01/01 A2986 RMK AO2 FZRANO
KADF 141323Z AUTO 18003KT 1 3/4SM BR OVC003 01/01 A2986 RMK AO2 FZRANO
KADF 141316Z AUTO 00000KT 3SM BR OVC003 00/00 A2986 RMK AO2 FZRANO
KADF 141312Z AUTO 00000KT 1 1/4SM BR OVC003 00/00 A2986 RMK AO2 FZRANO
KADF 141303Z AUTO 00000KT 3/4SM BR OVC003 00/00 A2986 RMK AO2 FZRANO
KADF 141256Z AUTO 00000KT 1SM BR OVC001 00/00 A2986 RMK AO2 SLP111 T00000000 FZRANO
KADF 141254Z AUTO 17003KT 1 1/4SM BR OVC001 00/00 A2986 RMK AO2 FZRANO
KADF 141247Z AUTO 19003KT 3/4SM BR OVC001 00/00 A2986 RMK AO2 FZRANO
KADF 141235Z AUTO 00000KT 1/4SM FG OVC001 00/00 A2985 RMK AO2 FZRANO
KADF 141208Z AUTO 00000KT 1/2SM FG OVC001 01/01 A2983 RMK AO2 FZRANO
KADF 141204Z AUTO 00000KT 1SM BR OVC001 01/01 A2983 RMK AO2 FZRANO
KADF 141156Z AUTO 00000KT 2SM BR OVC001 00/00 A2983 RMK AO2 SLP102 T00000000 10033 20000 56007 FZRANO
KADF 141136Z AUTO 00000KT 2 1/2SM BR BKN001 01/01 A2982 RMK AO2 FZRANO
KADF 141102Z AUTO 00000KT 5SM BR SCT001 00/00 A2983 RMK AO2 FZRANO
KADF 141056Z AUTO 00000KT 2 1/2SM BR BKN001 00/00 A2983 RMK AO2 SLP102 T00000000 FZRANO
KADF 141008Z AUTO 00000KT 10SM BKN001 01/01 A2983 RMK AO2 FZRANO
KADF 140956Z AUTO 00000KT 10SM SCT001 01/01 A2984 RMK AO2 SLP103 T00060006 FZRANO
KADF 140856Z AUTO 32003KT 10SM CLR 02/02 A2985 RMK AO2 SLP109 T00170017 53000 FZRANO
KADF 140756Z AUTO 00000KT 10SM CLR 02/02 A2985 RMK AO2 SLP107 T00220022 FZRANO
KADF 140656Z AUTO 00000KT 10SM CLR 02/02 A2985 RMK AO2 SLP109 T00220022 FZRANO
KADF 140556Z AUTO 00000KT 10SM CLR 03/03 A2985 RMK AO2 SLP109 T00330033 10106 20033 401220000 58004
KADF 140456Z AUTO 00000KT 10SM CLR 05/05 A2986 RMK AO2 SLP112 T00500050
KADF 140356Z AUTO 00000KT 10SM CLR 06/06 A2986 RMK AO2 SLP112 T00610061
KADF 140256Z AUTO 31003KT 10SM OVC030 08/08 A2986 RMK AO2 SLP112 T00830078 58001
KADF 140156Z AUTO 00000KT 10SM OVC030 09/08 A2988 RMK AO2 SLP117 T00940078
KADF 140138Z AUTO 00000KT 10SM OVC030 09/07 A2988 RMK AO2
KADF 140056Z AUTO 00000KT 10SM OVC026 10/07 A2987 RMK AO2 SLP114 T01000072
KADF 132356Z AUTO 02005KT 10SM BKN028 OVC043 11/07 A2987 RMK AO2 SLP113 T01060072 10122 20067 53010
KADF 132338Z AUTO 00000KT 10SM BKN028 OVC045 11/08 A2986 RMK AO2
KADF 132256Z AUTO 00000KT 10SM FEW026 OVC043 12/08 A2985 RMK AO2 SLP107 T01170078
KADF 132252Z AUTO 00000KT 10SM FEW026 OVC043 12/08 A2985 RMK AO2
KADF 132156Z AUTO VRB03KT 10SM OVC026 12/07 A2984 RMK AO2 SLP103 T01170072
KADF 132056Z AUTO 00000KT 10SM BKN022 12/07 A2984 RMK AO2 SLP104 T01170067 56028
KADF 131956Z AUTO 00000KT 10SM FEW026 10/06 A2984 RMK AO2 SLP105 T01000061
KADF 131856Z AUTO 00000KT 10SM OVC028 08/06 A2989 RMK AO2 SLP121 T00780056
KADF 131756Z AUTO 02005KT 10SM OVC028 07/06 A2993 RMK AO2 SLP133 T00670056 10067 20017 58024
KADF 131556Z AUTO 00000KT 10SM BKN043 OVC080 05/04 A3000 RMK AO2 SLP159 T00500044
KADF 131550Z AUTO 00000KT 10SM FEW006 SCT041 OVC080 05/04 A3000 RMK AO2
KADF 131456Z AUTO 24004KT 10SM BKN006 OVC050 04/03 A3001 RMK AO2 SLP163 T00390033 55000
KADF 131450Z AUTO 00000KT 10SM BKN006 OVC050 04/03 A3000 RMK AO2
KADF 131356Z AUTO 00000KT 10SM BKN055 OVC075 03/02 A3000 RMK AO2 SLP161 T00280022
KADF 131256Z AUTO 00000KT 10SM CLR 02/02 A3001 RMK AO2 SLP162 T00170017 FZRANO
KADF 131156Z AUTO 00000KT 10SM CLR 02/02 A3001 RMK AO2 SLP162 T00170017 10017 20000 56017 FZRANO
KADF 131056Z AUTO 00000KT 10SM CLR 02/02 A3002 RMK AO2 SLP166 T00170017 FZRANO
KADF 130956Z AUTO 00000KT 10SM CLR 01/01 A3004 RMK AO2 SLP172 T00110011 FZRANO
KADF 130856Z AUTO 00000KT 10SM CLR 01/01 A3006 RMK AO2 SLP179 T00110011 58018 FZRANO
KADF 130756Z AUTO 00000KT 10SM SCT035 02/02 A3008 RMK AO2 SLP185 T00170017 FZRANO
KADF 130656Z AUTO 00000KT 10SM SCT035 01/01 A3010 RMK AO2 SLP194 T00060006 FZRANO
KADF 130556Z AUTO 00000KT 10SM CLR 00/00 A3011 RMK AO2 SLP197 T00000000 10050 21006 401171039 58009 FZRANO
KADF 130456Z AUTO 00000KT 10SM CLR M01/M01 A3012 RMK AO2 SLP200 T10061006 FZRANO
KADF 130356Z AUTO 00000KT 10SM CLR 00/00 A3014 RMK AO2 SLP206 T00000000 FZRANO
KADF 130256Z AUTO 00000KT 10SM CLR 01/01 A3014 RMK AO2 SLP207 T00060006 58004 FZRANO
KADF 130156Z AUTO 00000KT 10SM CLR 02/01 A3016 RMK AO2 SLP213 T00170006 FZRANO